Time;durP1;ratioP1;P1;durP2;ratioP2;P2;SDS_P1;SDS_P2;PMS_P1;PMS_P2;Temp;Humidity;BMP_temperature;BMP_pressure;BME280_temperature;BME280_humidity;BME280_pressure;Samples;Min_cycle;Max_cycle;Signal;HPM_P1;HPM_P2
2021/12/19 00:00:51;;;;;;;6.03;2.60;;;;;;;2.01;69.42;100421.59;1770843;81;21255;-53
2021/12/19 00:04:23;;;;;;;4.17;2.72;;;;;;;2.01;69.49;100427.86;1770913;80;21226;-52
2021/12/19 00:10:45;;;;;;;4.70;2.50;;;;;;;2.05;69.81;100423.05;1770782;81;21242;-53
2021/12/19 00:13:54;;;;;;;5.17;3.10;;;;;;;2.03;69.77;100417.78;1770773;80;21229;-53
2021/12/19 00:17:01;;;;;;;4.65;2.70;;;;;;;2.01;69.92;100417.55;1770816;81;21255;-53
2021/12/19 00:20:07;;;;;;;4.28;3.20;;;;;;;2.01;70.12;100400.87;1770085;80;21275;-53
2021/12/19 00:23:14;;;;;;;4.45;2.95;;;;;;;1.96;70.30;100386.88;1773227;79;21366;-53
2021/12/19 00:26:23;;;;;;;5.75;3.90;;;;;;;1.95;70.67;100376.20;1772497;80;21884;-52
2021/12/19 00:29:28;;;;;;;4.35;3.25;;;;;;;1.99;70.95;100365.51;1772610;80;21213;-53
2021/12/19 00:32:36;;;;;;;4.65;3.17;;;;;;;1.94;71.10;100356.91;1772728;80;21213;-53
2021/12/19 00:35:42;;;;;;;3.75;3.10;;;;;;;1.90;71.29;100367.13;1772637;80;21320;-53
2021/12/19 00:38:47;;;;;;;5.78;3.20;;;;;;;1.88;71.53;100359.63;1772604;80;21213;-52
2021/12/19 00:41:54;;;;;;;3.90;3.05;;;;;;;1.84;71.70;100354.59;1772806;80;21813;-54
2021/12/19 00:45:05;;;;;;;4.97;3.20;;;;;;;1.83;72.03;100356.91;1772831;80;21383;-54
2021/12/19 00:48:13;;;;;;;4.80;2.75;;;;;;;1.82;72.17;100347.98;1772704;80;21316;-52
2021/12/19 00:51:23;;;;;;;4.10;2.95;;;;;;;1.77;72.38;100342.56;1772650;80;21355;-52
2021/12/19 00:54:29;;;;;;;4.92;3.02;;;;;;;1.75;72.59;100340.46;1772527;80;21354;-53
2021/12/19 00:57:38;;;;;;;4.90;3.05;;;;;;;1.75;72.72;100340.46;1772892;80;21366;-52
2021/12/19 01:00:44;;;;;;;8.50;3.42;;;;;;;1.77;72.99;100334.46;1772890;80;21379;-53
2021/12/19 01:03:50;;;;;;;4.53;3.00;;;;;;;1.81;73.17;100322.47;1765164;80;21895;-53
2021/12/19 01:07:00;;;;;;;5.42;3.45;;;;;;;1.78;73.20;100312.75;1785345;79;21201;-53
2021/12/19 01:10:03;;;;;;;5.40;3.47;;;;;;;1.79;73.43;100306.88;1772546;80;21217;-53
2021/12/19 01:13:10;;;;;;;5.80;3.75;;;;;;;1.79;73.54;100298.78;1772794;80;21354;-52
2021/12/19 01:16:19;;;;;;;7.83;4.08;;;;;;;1.78;73.68;100294.34;1772573;80;21402;-53
2021/12/19 01:19:24;;;;;;;7.75;4.28;;;;;;;1.78;73.90;100278.16;1772698;80;21205;-53
2021/12/19 01:22:30;;;;;;;7.78;4.80;;;;;;;1.80;74.06;100274.85;1770949;79;21204;-54
2021/12/19 01:25:36;;;;;;;6.67;4.80;;;;;;;1.85;74.22;100274.00;1770658;80;21335;-52
2021/12/19 01:28:43;;;;;;;7.80;5.22;;;;;;;1.88;74.34;100262.95;1770217;80;21378;-54
2021/12/19 01:31:51;;;;;;;7.97;5.12;;;;;;;1.90;74.43;100252.42;1770736;81;21221;-53
2021/12/19 01:35:01;;;;;;;8.05;5.22;;;;;;;1.94;74.50;100244.91;1770900;80;21774;-53
2021/12/19 01:38:09;;;;;;;8.45;5.70;;;;;;;2.02;74.57;100250.54;1770935;80;21927;-52
2021/12/19 01:41:14;;;;;;;8.13;5.62;;;;;;;2.05;74.48;100229.56;1771150;80;21189;-52
2021/12/19 01:44:19;;;;;;;8.48;6.08;;;;;;;2.07;74.33;100229.43;1782697;80;22192;-53
2021/12/19 01:47:28;;;;;;;8.53;6.20;;;;;;;2.09;74.36;100226.99;1770857;80;21181;-54
2021/12/19 01:50:35;;;;;;;11.45;7.80;;;;;;;2.07;74.05;100219.98;1770855;80;21201;-52
2021/12/19 01:53:42;;;;;;;13.13;9.03;;;;;;;1.95;73.33;100206.16;1763465;80;21360;-54
2021/12/19 01:56:48;;;;;;;12.73;8.35;;;;;;;1.83;73.12;100206.66;1690057;83;21439;-53
2021/12/19 01:59:54;;;;;;;11.55;7.28;;;;;;;1.74;73.19;100197.11;1740400;82;21511;-52
2021/12/19 02:03:04;;;;;;;10.63;7.90;;;;;;;1.68;73.33;100187.69;1742730;81;21311;-53
2021/12/19 02:06:12;;;;;;;10.65;7.25;;;;;;;1.69;73.45;100185.34;1750138;81;21245;-53
2021/12/19 02:09:18;;;;;;;9.55;7.12;;;;;;;1.69;73.19;100185.83;1739679;82;21234;-52
2021/12/19 02:12:23;;;;;;;10.58;7.22;;;;;;;1.67;72.88;100176.99;1739896;82;21209;-51
2021/12/19 02:15:30;;;;;;;7.65;5.75;;;;;;;1.61;72.63;100164.02;1705532;83;21390;-53
2021/12/19 02:18:34;;;;;;;7.17;5.40;;;;;;;1.59;72.61;100146.61;1755519;80;21999;-53
2021/12/19 02:21:41;;;;;;;5.85;4.70;;;;;;;1.57;72.43;100131.03;1738922;82;21185;-53
2021/12/19 02:24:46;;;;;;;5.25;4.30;;;;;;;1.55;72.37;100120.37;1740158;82;21209;-53
2021/12/19 02:27:52;;;;;;;6.72;4.72;;;;;;;1.58;72.33;100116.58;1739753;82;21740;-52
2021/12/19 02:30:57;;;;;;;6.50;4.10;;;;;;;1.61;72.40;100110.06;1740204;82;21228;-53
2021/12/19 02:34:13;;;;;;;5.17;3.67;;;;;;;1.65;72.43;100104.28;1739530;82;21224;-52
2021/12/19 02:37:44;;;;;;;5.03;3.52;;;;;;;1.68;72.25;100105.89;1741917;82;21233;-52
2021/12/19 02:50:16;;;;;;;;;;;;;;;1.75;72.24;100051.29;1742751;82;21350;-53
2021/12/19 02:53:23;;;;;;;2.92;2.10;;;;;;;1.78;72.23;100038.89;1740132;82;20200;-54
2021/12/19 02:56:29;;;;;;;2.95;2.10;;;;;;;1.77;72.21;100034.97;1740138;82;21746;-53
2021/12/19 02:59:33;;;;;;;3.58;2.00;;;;;;;1.82;72.16;100028.70;1740718;82;21235;-53
2021/12/19 03:02:38;;;;;;;3.27;1.72;;;;;;;1.83;71.98;100031.75;1731726;82;21189;-53
2021/12/19 03:05:44;;;;;;;3.12;2.00;;;;;;;1.85;71.86;100025.74;1740191;82;21228;-53
2021/12/19 03:08:57;;;;;;;2.65;1.90;;;;;;;1.84;71.80;100024.04;1740980;82;21209;-51
2021/12/19 03:12:11;;;;;;;2.50;1.60;;;;;;;1.86;71.81;100021.56;1741009;82;21177;-53
2021/12/19 03:18:33;;;;;;;2.58;1.95;;;;;;;1.83;71.55;100008.81;1740740;82;21247;-53
2021/12/19 03:21:41;;;;;;;1.95;1.77;;;;;;;1.83;71.52;99991.28;1740183;82;21450;-53
2021/12/19 03:24:48;;;;;;;3.05;1.75;;;;;;;1.83;71.54;99985.87;1740904;82;21872;-53
2021/12/19 03:27:55;;;;;;;2.40;1.90;;;;;;;1.83;71.62;99975.95;1742606;82;21197;-53
2021/12/19 03:31:02;;;;;;;2.60;2.00;;;;;;;1.86;71.67;99964.03;1742144;82;21205;-52
2021/12/19 03:34:08;;;;;;;2.42;1.95;;;;;;;1.87;71.59;99971.16;1742515;82;21358;-52
2021/12/19 03:37:16;;;;;;;2.95;1.90;;;;;;;1.85;71.52;99955.58;1742576;82;21741;-52
2021/12/19 03:40:35;;;;;;;3.30;1.80;;;;;;;1.82;71.64;99944.58;1742334;82;21352;-52
2021/12/19 03:43:33;;;;;;;2.33;1.95;;;;;;;1.81;71.73;99943.36;1742485;82;21363;-52
2021/12/19 03:46:40;;;;;;;1.57;1.47;;;;;;;1.79;71.77;99937.23;1742318;82;21336;-53
2021/12/19 03:49:46;;;;;;;2.55;1.87;;;;;;;1.78;71.98;99932.80;1742717;82;21853;-53
2021/12/19 03:52:52;;;;;;;3.12;1.52;;;;;;;1.78;72.10;99931.45;1742159;82;21343;-52
2021/12/19 03:55:58;;;;;;;2.17;1.80;;;;;;;1.79;72.19;99923.73;1742334;82;21355;-52
2021/12/19 03:59:05;;;;;;;2.60;1.80;;;;;;;1.79;72.38;99923.73;1753728;81;21260;-52
2021/12/19 04:02:12;;;;;;;1.90;1.60;;;;;;;1.82;72.57;99912.20;1773697;80;21248;-53
2021/12/19 04:05:18;;;;;;;1.85;1.52;;;;;;;1.82;72.86;99900.54;1772832;81;21793;-53
2021/12/19 04:08:26;;;;;;;3.40;1.70;;;;;;;1.77;73.26;99891.98;1772853;79;21185;-53
2021/12/19 04:11:35;;;;;;;2.35;1.67;;;;;;;1.74;73.77;99882.81;1773456;80;21335;-53
2021/12/19 04:14:41;;;;;;;4.10;1.82;;;;;;;1.69;74.30;99878.30;1773728;79;21228;-53
2021/12/19 04:17:49;;;;;;;1.80;1.57;;;;;;;1.64;74.80;99881.88;1772903;79;21824;-53
2021/12/19 04:20:56;;;;;;;2.17;1.77;;;;;;;1.60;75.26;99873.70;1773021;80;21570;-53
2021/12/19 04:24:03;;;;;;;2.15;1.50;;;;;;;1.59;75.65;99866.61;1772790;79;21221;-53
2021/12/19 04:27:11;;;;;;;4.30;2.20;;;;;;;1.55;75.90;99853.36;1706184;84;21223;-52
2021/12/19 04:30:22;;;;;;;4.20;2.37;;;;;;;1.53;76.10;99843.70;1771065;79;21205;-54
2021/12/19 04:33:29;;;;;;;4.30;2.10;;;;;;;1.51;76.24;99840.27;1770596;79;21326;-54
2021/12/19 04:36:40;;;;;;;3.35;2.22;;;;;;;1.51;76.45;99826.31;1770758;81;21197;-54
2021/12/19 04:40:04;;;;;;;3.52;2.20;;;;;;;1.55;76.60;99821.00;1770664;79;21232;-52
2021/12/19 04:53:20;;;;;;;4.55;2.50;;;;;;;1.60;76.50;99805.79;1771239;79;21269;-54
2021/12/19 04:56:36;;;;;;;3.87;2.77;;;;;;;1.62;76.50;99801.61;1771874;80;21375;-53
2021/12/19 05:03:04;;;;;;;3.77;2.70;;;;;;;1.65;76.60;99783.80;1770901;79;21343;-52
2021/12/19 05:16:02;;;;;;;2.95;2.20;;;;;;;1.64;76.86;99751.92;1740065;82;20248;-53
2021/12/19 05:19:21;;;;;;;4.20;2.80;;;;;;;1.64;77.12;99749.71;1740673;82;21900;-53
2021/12/19 05:22:20;;;;;;;2.85;2.17;;;;;;;1.64;77.34;99720.04;1740650;82;21383;-52
2021/12/19 05:25:27;;;;;;;3.55;2.30;;;;;;;1.67;77.50;99713.89;1740130;82;21296;-52
2021/12/19 05:28:48;;;;;;;2.98;2.17;;;;;;;1.67;77.59;99705.80;1740334;82;21745;-54
2021/12/19 05:31:54;;;;;;;3.92;2.42;;;;;;;1.67;77.72;99715.72;1749275;81;21851;-54
2021/12/19 05:34:59;;;;;;;2.95;2.12;;;;;;;1.66;77.88;99714.03;1720104;82;21299;-54
2021/12/19 05:47:58;;;;;;;5.33;3.67;;;;;;;1.65;78.88;99679.45;1716788;83;21357;-53
2021/12/19 05:51:04;;;;;;;5.62;3.90;;;;;;;1.67;79.16;99675.27;1700146;83;21418;-53
2021/12/19 05:54:13;;;;;;;5.67;3.52;;;;;;;1.70;79.40;99676.36;1716549;83;21216;-53
2021/12/19 05:57:21;;;;;;;6.22;3.55;;;;;;;1.68;79.63;99665.72;1716787;83;21760;-53
2021/12/19 06:00:29;;;;;;;5.62;3.40;;;;;;;1.66;79.93;99657.38;1716660;83;21288;-52
2021/12/19 06:03:38;;;;;;;8.48;4.30;;;;;;;1.66;80.30;99649.30;1716668;83;21745;-53
2021/12/19 06:06:47;;;;;;;6.25;4.22;;;;;;;1.67;80.69;99641.55;1718228;82;21349;-51
2021/12/19 06:09:56;;;;;;;8.08;4.67;;;;;;;1.69;81.03;99631.48;1718643;82;21421;-55
2021/12/19 06:13:04;;;;;;;7.75;4.90;;;;;;;1.72;81.31;99630.72;1718883;82;21912;-54
2021/12/19 06:16:11;;;;;;;7.47;5.15;;;;;;;1.73;81.59;99627.53;1719131;83;21898;-54
2021/12/19 06:19:20;;;;;;;6.22;4.92;;;;;;;1.73;81.91;99622.97;1719049;82;21366;-56
2021/12/19 06:22:25;;;;;;;5.70;4.60;;;;;;;1.75;82.17;99613.38;1719266;83;21342;-54
2021/12/19 06:25:34;;;;;;;10.78;5.30;;;;;;;1.73;82.40;99602.73;1719232;83;21291;-54
2021/12/19 06:28:40;;;;;;;8.43;5.17;;;;;;;1.72;82.74;99584.86;1719063;82;21449;-54
2021/12/19 06:31:52;;;;;;;10.58;5.03;;;;;;;1.72;83.07;99572.72;1716685;82;21745;-53
2021/12/19 06:35:07;;;;;;;15.70;10.13;;;;;;;1.74;83.32;99579.33;1692127;83;21241;-54
2021/12/19 06:38:08;;;;;;;12.58;7.58;;;;;;;1.75;83.55;99573.78;1715389;82;21308;-54
2021/12/19 06:41:15;;;;;;;8.13;5.70;;;;;;;1.77;83.66;99573.16;1714129;83;21240;-55
2021/12/19 06:44:22;;;;;;;10.30;6.67;;;;;;;1.79;83.80;99566.27;1716038;81;21870;-53
2021/12/19 06:47:27;;;;;;;11.08;7.75;;;;;;;1.80;83.88;99555.83;1715065;83;21352;-54
2021/12/19 06:50:33;;;;;;;11.83;6.50;;;;;;;1.81;84.02;99557.55;1716786;82;21437;-53
2021/12/19 06:53:40;;;;;;;8.83;6.50;;;;;;;1.83;84.09;99563.63;1717269;83;21246;-54
2021/12/19 06:56:47;;;;;;;9.75;6.78;;;;;;;1.85;84.16;99553.56;1724125;82;21205;-55
2021/12/19 06:59:54;;;;;;;11.57;7.08;;;;;;;1.85;84.18;99546.33;1716631;83;21356;-53
2021/12/19 07:03:02;;;;;;;10.23;6.97;;;;;;;1.86;84.22;99526.44;1716941;83;21317;-53
2021/12/19 07:06:07;;;;;;;10.55;7.50;;;;;;;1.89;84.24;99533.41;1718055;83;21347;-54
2021/12/19 07:09:16;;;;;;;9.55;6.80;;;;;;;1.93;84.32;99521.33;1716927;81;21368;-54
2021/12/19 07:12:25;;;;;;;10.98;7.60;;;;;;;1.94;84.32;99523.88;1717471;83;22093;-56
2021/12/19 07:15:29;;;;;;;10.58;7.83;;;;;;;1.99;84.39;99518.05;1717236;83;21201;-55
2021/12/19 07:18:36;;;;;;;10.65;7.55;;;;;;;2.03;84.29;99522.19;1716796;82;21412;-54
2021/12/19 07:21:44;;;;;;;10.03;7.05;;;;;;;2.06;84.30;99497.61;1716540;83;21383;-53
2021/12/19 07:24:50;;;;;;;11.15;8.10;;;;;;;2.11;84.19;99497.52;1717063;81;21406;-53
2021/12/19 07:27:55;;;;;;;14.10;9.68;;;;;;;2.14;84.21;99481.55;1717047;81;21683;-56
2021/12/19 07:31:01;;;;;;;11.48;8.20;;;;;;;2.17;84.15;99465.88;1716940;83;21348;-53
2021/12/19 07:34:06;;;;;;;13.60;9.23;;;;;;;2.20;84.16;99452.61;1701308;83;21188;-54
2021/12/19 07:37:12;;;;;;;14.85;8.60;;;;;;;2.20;84.17;99452.61;1717049;83;21791;-56
2021/12/19 07:40:20;;;;;;;12.50;9.00;;;;;;;2.23;84.32;99446.43;1716763;82;21233;-53
2021/12/19 07:43:27;;;;;;;13.55;9.18;;;;;;;2.27;84.25;99433.47;1689852;83;21250;-55
2021/12/19 07:46:34;;;;;;;13.35;9.20;;;;;;;2.29;84.35;99431.48;1703488;83;21200;-52
2021/12/19 07:49:39;;;;;;;13.00;9.33;;;;;;;2.28;84.44;99414.45;1716843;83;21366;-54
2021/12/19 07:52:47;;;;;;;13.28;8.90;;;;;;;2.32;84.58;99406.39;1716126;83;21366;-54
2021/12/19 07:55:55;;;;;;;12.25;8.85;;;;;;;2.34;84.58;99404.89;1699771;83;21735;-52
2021/12/19 07:59:00;;;;;;;13.78;8.98;;;;;;;2.31;84.66;99416.85;1699646;83;21231;-52
2021/12/19 08:02:06;;;;;;;13.30;7.90;;;;;;;2.30;84.77;99402.98;1716582;83;21350;-53
2021/12/19 08:05:12;;;;;;;14.68;9.10;;;;;;;2.32;84.86;99400.99;1716691;83;21185;-52
2021/12/19 08:08:25;;;;;;;11.00;8.18;;;;;;;2.31;84.94;99401.14;1699627;83;21292;-52
2021/12/19 08:11:41;;;;;;;11.03;8.65;;;;;;;2.31;85.12;99403.84;1717044;83;21483;-54
2021/12/19 08:14:46;;;;;;;12.10;7.92;;;;;;;2.33;85.30;99408.08;1716575;83;21287;-53
2021/12/19 08:17:54;;;;;;;12.60;8.28;;;;;;;2.36;85.38;99412.36;1716622;83;21601;-53
2021/12/19 08:21:01;;;;;;;11.80;9.18;;;;;;;2.35;85.46;99413.33;1715848;83;21763;-52
2021/12/19 08:24:13;;;;;;;13.40;9.18;;;;;;;2.31;85.63;99386.30;1718482;83;21403;-52
2021/12/19 08:27:15;;;;;;;13.15;8.88;;;;;;;2.30;85.80;99361.66;1718789;83;21257;-51
2021/12/19 08:30:23;;;;;;;15.80;9.38;;;;;;;2.29;86.03;99360.80;1718658;83;21454;-53
2021/12/19 08:33:28;;;;;;;14.93;10.25;;;;;;;2.29;86.19;99355.88;1714280;82;21238;-53
2021/12/19 08:36:36;;;;;;;17.92;11.00;;;;;;;2.28;86.33;99332.59;1710216;84;21665;-53
2021/12/19 08:39:41;;;;;;;16.05;10.98;;;;;;;2.28;86.55;99319.09;1710140;84;21273;-52
2021/12/19 08:42:47;;;;;;;15.78;10.72;;;;;;;2.31;86.64;99321.49;1709329;84;21760;-53
2021/12/19 08:45:54;;;;;;;13.90;10.38;;;;;;;2.31;86.70;99302.11;1707192;83;21248;-53
2021/12/19 08:49:00;;;;;;;17.12;10.40;;;;;;;2.32;86.81;99297.53;1682282;83;21816;-51
2021/12/19 08:52:14;;;;;;;15.38;10.78;;;;;;;2.34;86.80;99275.30;1680901;85;21897;-52
2021/12/19 08:55:21;;;;;;;15.88;11.75;;;;;;;2.37;86.83;99281.73;1680892;85;21222;-53
2021/12/19 08:58:29;;;;;;;15.72;10.23;;;;;;;2.39;86.72;99275.20;1681105;83;21234;-51
2021/12/19 09:01:34;;;;;;;16.05;11.33;;;;;;;2.42;86.73;99272.69;1681391;85;21364;-53
2021/12/19 09:04:40;;;;;;;14.43;10.05;;;;;;;2.45;86.69;99259.73;1681293;83;21272;-53
2021/12/19 09:07:46;;;;;;;13.68;10.23;;;;;;;2.49;86.61;99250.84;1707686;82;21261;-51
2021/12/19 09:10:52;;;;;;;16.50;11.28;;;;;;;2.49;86.43;99250.31;1709961;83;21207;-53
2021/12/19 09:13:59;;;;;;;15.63;11.40;;;;;;;2.51;86.41;99240.22;1709595;82;21842;-52
2021/12/19 09:17:05;;;;;;;18.67;11.45;;;;;;;2.55;86.26;99238.06;1709471;84;21194;-53
2021/12/19 09:20:13;;;;;;;14.70;10.68;;;;;;;2.58;86.10;99244.51;1709013;84;21217;-53
2021/12/19 09:23:18;;;;;;;14.98;9.65;;;;;;;2.62;85.99;99225.63;1709386;82;21277;-53
2021/12/19 09:26:24;;;;;;;16.85;11.03;;;;;;;2.63;85.73;99224.12;1675001;85;21294;-52
2021/12/19 09:29:30;;;;;;;15.13;10.23;;;;;;;2.62;85.66;99199.47;1671785;84;21374;-53
2021/12/19 09:32:36;;;;;;;15.65;11.43;;;;;;;2.67;85.68;99194.95;1646464;87;21210;-53
2021/12/19 09:35:42;;;;;;;13.75;9.70;;;;;;;2.69;85.42;99182.14;1686753;84;21303;-55
2021/12/19 09:38:50;;;;;;;14.55;10.15;;;;;;;2.72;85.32;99169.67;1688108;83;21223;-53
2021/12/19 09:41:57;;;;;;;14.85;10.48;;;;;;;2.74;85.21;99162.27;1687941;85;21331;-53
2021/12/19 09:45:05;;;;;;;15.78;11.03;;;;;;;2.77;85.00;99162.81;1672103;84;22153;-53
2021/12/19 09:48:09;;;;;;;17.98;10.88;;;;;;;2.77;84.89;99169.56;1671697;83;21434;-53
2021/12/19 09:51:16;;;;;;;15.30;11.00;;;;;;;2.78;84.74;99160.45;1688240;85;21224;-53
2021/12/19 09:54:24;;;;;;;17.15;11.80;;;;;;;2.79;84.67;99155.91;1688074;83;21848;-53
2021/12/19 09:57:32;;;;;;;15.25;10.45;;;;;;;2.75;84.52;99140.50;1688677;85;21797;-56
2021/12/19 10:00:43;;;;;;;14.33;11.22;;;;;;;2.73;84.53;99145.70;1688366;85;21350;-52
2021/12/19 10:03:51;;;;;;;14.83;10.63;;;;;;;2.70;84.56;99144.17;1687993;83;22002;-53
2021/12/19 10:07:20;;;;;;;14.30;11.25;;;;;;;2.74;84.67;99133.91;1687576;85;21262;-53
2021/12/19 10:10:26;;;;;;;16.42;12.50;;;;;;;2.78;84.60;99127.17;1687148;85;21736;-51
2021/12/19 10:13:44;;;;;;;17.52;12.43;;;;;;;2.81;84.48;99113.34;1686861;83;21258;-53
2021/12/19 10:16:52;;;;;;;16.60;11.50;;;;;;;2.82;84.49;99105.60;1687285;85;22138;-53
2021/12/19 10:20:04;;;;;;;15.75;10.85;;;;;;;2.82;84.55;99096.97;1687891;83;21242;-52
2021/12/19 10:23:32;;;;;;;15.48;10.40;;;;;;;2.83;84.76;99081.61;1688880;83;21732;-51
2021/12/19 10:26:51;;;;;;;15.80;11.70;;;;;;;2.83;84.96;99078.91;1687520;85;22074;-52
2021/12/19 10:29:59;;;;;;;16.87;11.83;;;;;;;2.86;85.21;99065.94;1686974;83;21550;-51
2021/12/19 10:33:17;;;;;;;20.32;12.53;;;;;;;2.88;85.39;99054.97;1686837;83;21207;-52
2021/12/19 10:36:22;;;;;;;16.93;11.78;;;;;;;2.85;85.48;99037.20;1657763;81;21297;-53
2021/12/19 10:39:29;;;;;;;16.35;11.63;;;;;;;2.85;85.75;99032.33;1662561;85;21748;-52
2021/12/19 10:42:36;;;;;;;19.82;12.73;;;;;;;2.83;85.93;99035.19;1679762;85;21884;-52
2021/12/19 10:45:58;;;;;;;20.90;12.65;;;;;;;2.85;86.07;99040.43;1683365;85;21396;-53
2021/12/19 10:49:05;;;;;;;18.30;13.32;;;;;;;2.84;86.23;99039.57;1683253;83;21343;-52
2021/12/19 10:52:11;;;;;;;19.55;12.68;;;;;;;2.81;86.30;99024.17;1682690;85;21255;-51
2021/12/19 10:55:20;;;;;;;18.75;12.80;;;;;;;2.79;86.44;99028.92;1682335;85;21754;-52
2021/12/19 10:58:38;;;;;;;16.77;11.28;;;;;;;2.79;86.63;99013.53;1682458;83;21242;-56
2021/12/19 11:01:52;;;;;;;17.37;12.13;;;;;;;2.79;86.75;99007.30;1683112;85;21215;-52
2021/12/19 11:04:57;;;;;;;20.60;12.20;;;;;;;2.80;86.97;98996.83;1683117;84;21710;-53
2021/12/19 11:08:13;;;;;;;19.67;12.33;;;;;;;2.80;87.18;98988.72;1682985;83;21275;-53
2021/12/19 11:11:19;;;;;;;18.57;11.53;;;;;;;2.79;87.35;98972.19;1682806;85;21210;-53
2021/12/19 11:14:30;;;;;;;16.85;12.33;;;;;;;2.80;87.64;98975.22;1683039;83;21267;-52
2021/12/19 11:17:35;;;;;;;15.32;11.75;;;;;;;2.80;87.84;98988.72;1654659;86;21722;-51
2021/12/19 11:20:45;;;;;;;15.95;11.57;;;;;;;2.81;88.08;98998.52;1683586;85;21250;-54
2021/12/19 11:23:50;;;;;;;16.42;10.72;;;;;;;2.84;88.22;98983.33;1683491;83;21688;-51
2021/12/19 11:27:05;;;;;;;17.60;11.48;;;;;;;2.85;88.35;98995.84;1683601;85;21208;-52
2021/12/19 11:30:14;;;;;;;15.70;10.75;;;;;;;2.83;88.43;98993.80;1684748;85;21228;-52
2021/12/19 11:33:40;;;;;;;17.85;11.83;;;;;;;2.81;88.56;98990.41;1683046;85;21263;-55
2021/12/19 11:36:49;;;;;;;15.08;10.75;;;;;;;2.82;88.73;98975.91;1646388;83;21268;-53
2021/12/19 11:39:59;;;;;;;18.10;12.98;;;;;;;2.82;88.80;98978.61;1678053;85;21820;-52
2021/12/19 11:43:13;;;;;;;16.02;11.03;;;;;;;2.81;88.87;98960.69;1677151;85;21253;-50
2021/12/19 11:46:24;;;;;;;16.60;11.30;;;;;;;2.80;88.88;98949.55;1656465;84;21256;-51
2021/12/19 11:49:32;;;;;;;14.68;10.03;;;;;;;2.77;88.88;98947.17;1644010;86;21813;-52
2021/12/19 11:52:38;;;;;;;13.48;9.88;;;;;;;2.74;88.91;98938.05;1643297;87;21233;-51
2021/12/19 11:55:49;;;;;;;15.55;10.32;;;;;;;2.73;88.85;98930.44;1643308;87;21213;-51
2021/12/19 11:58:59;;;;;;;11.85;9.48;;;;;;;2.70;88.82;98917.25;1643224;87;21817;-50
2021/12/19 12:02:28;;;;;;;13.72;9.33;;;;;;;2.70;88.72;98918.60;1643097;87;21240;-51
2021/12/19 12:05:34;;;;;;;13.60;9.08;;;;;;;2.65;88.64;98908.78;1643393;87;21349;-53
2021/12/19 12:08:39;;;;;;;12.35;8.50;;;;;;;2.64;88.56;98900.84;1656815;83;21285;-49
2021/12/19 12:11:50;;;;;;;14.00;9.65;;;;;;;2.58;88.46;98892.05;1664228;85;21208;-50
2021/12/19 12:15:05;;;;;;;13.43;8.73;;;;;;;2.55;88.47;98881.58;1659567;85;21289;-52
2021/12/19 12:18:16;;;;;;;12.15;8.68;;;;;;;2.52;88.49;98877.32;1650931;85;21715;-51
2021/12/19 12:24:42;;;;;;;11.08;8.18;;;;;;;2.47;88.51;98863.98;1683381;84;21213;-52
2021/12/19 12:28:04;;;;;;;13.72;8.43;;;;;;;2.42;88.40;98858.22;1667272;85;21698;-51
2021/12/19 12:31:09;;;;;;;11.50;8.88;;;;;;;2.39;88.47;98851.80;1696443;84;21208;-53
2021/12/19 12:34:20;;;;;;;11.43;8.65;;;;;;;2.35;88.53;98840.95;1664297;84;21326;-52
2021/12/19 12:37:27;;;;;;;10.72;8.38;;;;;;;2.32;88.56;98829.99;1707936;82;21735;-51
2021/12/19 12:40:59;;;;;;;10.25;7.62;;;;;;;2.29;88.67;98826.77;1671556;84;21599;-51
2021/12/19 12:44:14;;;;;;;11.63;7.65;;;;;;;2.26;88.74;98832.00;1674693;84;21272;-51
2021/12/19 12:47:23;;;;;;;11.93;7.78;;;;;;;2.23;88.79;98820.67;1650723;87;21795;-53
2021/12/19 12:50:29;;;;;;;10.35;7.10;;;;;;;2.21;88.92;98823.53;1663227;84;21220;-53
2021/12/19 12:53:56;;;;;;;9.85;6.67;;;;;;;2.20;88.99;98821.85;1671704;84;21258;-51
2021/12/19 12:57:04;;;;;;;9.28;7.20;;;;;;;2.21;89.14;98819.98;1669958;85;21922;-54
2021/12/19 13:00:10;;;;;;;11.25;6.75;;;;;;;2.19;89.16;98815.27;1707522;84;21368;-54
2021/12/19 13:03:30;;;;;;;8.60;6.65;;;;;;;2.17;89.23;98809.17;1708578;82;21300;-51
2021/12/19 13:07:11;;;;;;;23.87;17.25;;;;;;;2.12;89.30;98797.52;1712325;84;21890;-53
2021/12/19 13:10:19;;;;;;;12.58;8.50;;;;;;;2.11;89.40;98806.61;1712899;84;21266;-52
2021/12/19 13:13:24;;;;;;;10.65;7.60;;;;;;;2.10;89.62;98793.27;1712589;82;21280;-51
2021/12/19 13:16:33;;;;;;;11.65;6.80;;;;;;;2.10;89.65;98791.92;1708395;83;22303;-51
2021/12/19 13:20:02;;;;;;;10.20;5.75;;;;;;;2.08;89.72;98779.95;1711699;82;21247;-51
2021/12/19 13:23:10;;;;;;;8.78;5.15;;;;;;;2.09;89.80;98789.75;1712681;82;21577;-54
2021/12/19 13:26:16;;;;;;;8.95;5.92;;;;;;;2.07;89.84;98784.16;1706974;82;21343;-52
2021/12/19 13:29:29;;;;;;;13.93;7.47;;;;;;;2.07;89.97;98777.41;1712302;82;21747;-53
2021/12/19 13:32:36;;;;;;;;;;;;;;;2.08;90.01;98778.59;1713654;84;21427;-52
2021/12/19 13:35:58;;;;;;;15.60;8.43;;;;;;;2.07;90.06;98762.56;1704468;84;20580;-53
2021/12/19 13:39:04;;;;;;;15.18;7.37;;;;;;;2.07;90.19;98755.83;1710065;83;21375;-51
2021/12/19 13:42:20;;;;;;;11.75;6.12;;;;;;;2.08;90.17;98761.05;1716453;83;21255;-52
2021/12/19 13:45:47;;;;;;;14.58;7.62;;;;;;;2.11;90.25;98773.40;1716264;83;21847;-53
2021/12/19 13:48:59;;;;;;;13.85;6.58;;;;;;;2.13;90.26;98752.47;1716733;83;21371;-53
2021/12/19 13:52:05;;;;;;;12.93;6.22;;;;;;;2.14;90.29;98746.08;1702144;83;21204;-53
2021/12/19 13:55:16;;;;;;;11.80;5.53;;;;;;;2.13;90.29;98747.07;1690692;83;21212;-53
2021/12/19 13:58:22;;;;;;;12.18;4.92;;;;;;;2.15;90.34;98747.77;1686397;83;21781;-53
2021/12/19 14:01:29;;;;;;;12.05;5.30;;;;;;;2.15;90.36;98740.52;1676642;83;21255;-53
2021/12/19 14:04:35;;;;;;;13.53;6.53;;;;;;;2.18;90.44;98740.20;1673991;83;21860;-53
2021/12/19 14:07:43;;;;;;;15.28;6.90;;;;;;;2.21;90.41;98737.66;1656179;85;21767;-53
2021/12/19 14:10:48;;;;;;;11.70;5.45;;;;;;;2.23;90.39;98735.65;1656268;85;21219;-51
2021/12/19 14:14:08;;;;;;;10.50;5.05;;;;;;;2.23;90.37;98719.45;1652133;86;21216;-52
2021/12/19 14:17:19;;;;;;;16.75;7.37;;;;;;;2.26;90.32;98733.97;1654568;85;21228;-53
2021/12/19 14:20:27;;;;;;;10.88;5.45;;;;;;;2.26;90.31;98729.92;1666004;85;21285;-53
2021/12/19 14:23:33;;;;;;;11.85;6.37;;;;;;;2.25;90.34;98730.94;1655666;86;21286;-49
2021/12/19 14:26:39;;;;;;;10.75;5.83;;;;;;;2.27;90.35;98720.30;1636077;86;21217;-52
2021/12/19 14:30:08;;;;;;;12.50;6.33;;;;;;;2.30;90.37;98723.20;1656658;86;21205;-49
2021/12/19 14:33:13;;;;;;;11.53;5.85;;;;;;;2.30;90.33;98717.27;1602969;89;21245;-50
2021/12/19 14:36:19;;;;;;;9.45;5.05;;;;;;;2.33;90.38;98717.47;1601347;89;21294;-50
2021/12/19 14:39:30;;;;;;;11.48;5.47;;;;;;;2.34;90.36;98713.25;1630073;84;21629;-52
2021/12/19 14:42:43;;;;;;;7.85;4.53;;;;;;;2.37;90.38;98714.77;1654509;86;21299;-50
2021/12/19 14:46:02;;;;;;;10.88;5.50;;;;;;;2.37;90.38;98711.57;1679740;84;21830;-50
2021/12/19 14:49:19;;;;;;;8.60;5.50;;;;;;;2.39;90.43;98706.01;1657344;84;21247;-53
2021/12/19 14:52:30;;;;;;;8.83;5.15;;;;;;;2.40;90.50;98707.19;1716142;83;21297;-52
2021/12/19 14:55:39;;;;;;;13.62;5.70;;;;;;;2.43;90.55;98708.70;1719842;83;21209;-51
2021/12/19 14:58:48;;;;;;;10.88;5.47;;;;;;;2.45;90.61;98700.79;1687149;83;21231;-51
2021/12/19 15:01:54;;;;;;;9.43;6.15;;;;;;;2.50;90.67;98680.89;1717723;83;21200;-50
2021/12/19 15:05:02;;;;;;;8.38;5.33;;;;;;;2.52;90.62;98689.64;1707011;83;21216;-53
2021/12/19 15:08:14;;;;;;;8.95;5.50;;;;;;;2.53;90.65;98699.95;1716177;83;21726;-52
2021/12/19 15:11:20;;;;;;;8.48;5.62;;;;;;;2.55;90.68;98689.84;1715861;83;21201;-52
2021/12/19 15:14:27;;;;;;;11.38;6.25;;;;;;;2.58;90.79;98684.09;1715731;83;21228;-53
2021/12/19 15:17:37;;;;;;;8.88;6.03;;;;;;;2.59;90.81;98684.42;1716337;83;21691;-53
2021/12/19 15:20:43;;;;;;;11.40;6.30;;;;;;;2.60;90.84;98681.55;1720215;82;21393;-57
2021/12/19 15:23:49;;;;;;;10.08;6.20;;;;;;;2.63;90.91;98676.34;1716258;83;21208;-55
2021/12/19 15:26:57;;;;;;;9.25;6.72;;;;;;;2.64;90.91;98673.97;1717543;83;21188;-53
2021/12/19 15:30:02;;;;;;;14.68;8.75;;;;;;;2.65;90.94;98672.45;1715796;83;21244;-54
2021/12/19 15:33:09;;;;;;;11.80;7.35;;;;;;;2.68;90.97;98673.99;1720895;82;22054;-54
2021/12/19 15:36:16;;;;;;;11.10;6.30;;;;;;;2.69;90.99;98668.92;1737144;82;21771;-55
2021/12/19 15:39:21;;;;;;;11.05;7.45;;;;;;;2.73;91.01;98664.84;1727231;82;21765;-54
2021/12/19 15:42:28;;;;;;;11.60;7.37;;;;;;;2.74;91.03;98675.48;1725380;82;21220;-53